sensor_id;sensor_type;location;lat;lon;timestamp;P1;durP1;ratioP1;P2;durP2;ratioP2
67965;SDS011;54749;47.850;9.002;2023-03-23T00:01:15;13.85;;;5.00;;
67965;SDS011;54749;47.850;9.002;2023-03-23T00:03:51;11.52;;;4.57;;
67965;SDS011;54749;47.850;9.002;2023-03-23T00:06:20;8.97;;;4.80;;
67965;SDS011;54749;47.850;9.002;2023-03-23T00:08:48;10.27;;;4.80;;
67965;SDS011;54749;47.850;9.002;2023-03-23T00:11:25;9.88;;;4.30;;
67965;SDS011;54749;47.850;9.002;2023-03-23T00:13:56;8.90;;;4.10;;
67965;SDS011;54749;47.850;9.002;2023-03-23T00:16:31;9.77;;;4.40;;
67965;SDS011;54749;47.850;9.002;2023-03-23T00:19:00;7.97;;;3.80;;
67965;SDS011;54749;47.850;9.002;2023-03-23T00:21:30;7.68;;;3.78;;
67965;SDS011;54749;47.850;9.002;2023-03-23T00:24:03;10.00;;;4.15;;
67965;SDS011;54749;47.850;9.002;2023-03-23T00:26:32;8.90;;;3.70;;
67965;SDS011;54749;47.850;9.002;2023-03-23T00:29:18;7.15;;;3.42;;
67965;SDS011;54749;47.850;9.002;2023-03-23T00:31:50;8.67;;;3.67;;
67965;SDS011;54749;47.850;9.002;2023-03-23T00:34:18;8.23;;;3.20;;
67965;SDS011;54749;47.850;9.002;2023-03-23T00:36:51;7.03;;;3.25;;
67965;SDS011;54749;47.850;9.002;2023-03-23T00:39:29;8.27;;;4.32;;
67965;SDS011;54749;47.850;9.002;2023-03-23T00:41:56;8.45;;;4.32;;
67965;SDS011;54749;47.850;9.002;2023-03-23T00:44:28;7.80;;;3.17;;
67965;SDS011;54749;47.850;9.002;2023-03-23T00:46:57;7.88;;;2.92;;
67965;SDS011;54749;47.850;9.002;2023-03-23T00:49:25;9.82;;;4.07;;
67965;SDS011;54749;47.850;9.002;2023-03-23T00:51:53;8.25;;;4.25;;
67965;SDS011;54749;47.850;9.002;2023-03-23T00:54:23;8.70;;;4.10;;
67965;SDS011;54749;47.850;9.002;2023-03-23T00:56:51;8.30;;;4.10;;
67965;SDS011;54749;47.850;9.002;2023-03-23T00:59:19;7.38;;;3.40;;
67965;SDS011;54749;47.850;9.002;2023-03-23T01:01:47;6.45;;;3.10;;
67965;SDS011;54749;47.850;9.002;2023-03-23T01:04:15;7.65;;;3.25;;
67965;SDS011;54749;47.850;9.002;2023-03-23T01:06:43;5.95;;;2.80;;
67965;SDS011;54749;47.850;9.002;2023-03-23T01:09:12;5.93;;;2.53;;
67965;SDS011;54749;47.850;9.002;2023-03-23T01:11:44;6.25;;;2.38;;
67965;SDS011;54749;47.850;9.002;2023-03-23T01:14:12;6.25;;;2.63;;
67965;SDS011;54749;47.850;9.002;2023-03-23T01:16:41;6.78;;;2.60;;
67965;SDS011;54749;47.850;9.002;2023-03-23T01:19:08;7.18;;;3.15;;
67965;SDS011;54749;47.850;9.002;2023-03-23T01:21:36;6.93;;;3.40;;
67965;SDS011;54749;47.850;9.002;2023-03-23T01:24:03;7.10;;;3.40;;
67965;SDS011;54749;47.850;9.002;2023-03-23T01:26:30;6.20;;;3.00;;
67965;SDS011;54749;47.850;9.002;2023-03-23T01:28:58;7.18;;;2.90;;
67965;SDS011;54749;47.850;9.002;2023-03-23T01:31:25;6.00;;;2.83;;
67965;SDS011;54749;47.850;9.002;2023-03-23T01:33:53;6.70;;;2.70;;
67965;SDS011;54749;47.850;9.002;2023-03-23T01:36:23;7.07;;;2.92;;
67965;SDS011;54749;47.850;9.002;2023-03-23T01:38:54;8.52;;;3.40;;
67965;SDS011;54749;47.850;9.002;2023-03-23T01:41:21;9.75;;;3.90;;
67965;SDS011;54749;47.850;9.002;2023-03-23T01:43:57;8.05;;;3.85;;
67965;SDS011;54749;47.850;9.002;2023-03-23T01:46:42;10.33;;;4.27;;
67965;SDS011;54749;47.850;9.002;2023-03-23T01:49:12;7.85;;;3.97;;
67965;SDS011;54749;47.850;9.002;2023-03-23T01:51:52;6.05;;;2.80;;
67965;SDS011;54749;47.850;9.002;2023-03-23T01:54:23;6.30;;;2.65;;
67965;SDS011;54749;47.850;9.002;2023-03-23T01:56:55;6.82;;;2.70;;
67965;SDS011;54749;47.850;9.002;2023-03-23T01:59:26;5.43;;;2.50;;
67965;SDS011;54749;47.850;9.002;2023-03-23T02:02:12;5.95;;;2.42;;
67965;SDS011;54749;47.850;9.002;2023-03-23T02:04:42;5.45;;;2.70;;
67965;SDS011;54749;47.850;9.002;2023-03-23T02:07:10;5.72;;;2.70;;
67965;SDS011;54749;47.850;9.002;2023-03-23T02:09:38;5.22;;;2.50;;
67965;SDS011;54749;47.850;9.002;2023-03-23T02:12:05;5.10;;;2.43;;
67965;SDS011;54749;47.850;9.002;2023-03-23T02:14:35;6.50;;;2.80;;
67965;SDS011;54749;47.850;9.002;2023-03-23T02:17:04;8.27;;;2.55;;
67965;SDS011;54749;47.850;9.002;2023-03-23T02:22:34;7.78;;;3.42;;
67965;SDS011;54749;47.850;9.002;2023-03-23T02:30:41;7.43;;;3.42;;
67965;SDS011;54749;47.850;9.002;2023-03-23T02:36:03;7.25;;;2.72;;
67965;SDS011;54749;47.850;9.002;2023-03-23T02:41:24;7.30;;;3.60;;
67965;SDS011;54749;47.850;9.002;2023-03-23T02:43:57;7.97;;;3.33;;
67965;SDS011;54749;47.850;9.002;2023-03-23T02:46:25;12.30;;;4.63;;
67965;SDS011;54749;47.850;9.002;2023-03-23T02:48:53;14.27;;;5.30;;
67965;SDS011;54749;47.850;9.002;2023-03-23T02:51:23;8.87;;;3.80;;
67965;SDS011;54749;47.850;9.002;2023-03-23T02:53:53;9.15;;;3.60;;
67965;SDS011;54749;47.850;9.002;2023-03-23T02:56:23;12.43;;;3.95;;
67965;SDS011;54749;47.850;9.002;2023-03-23T02:58:55;10.50;;;3.80;;
67965;SDS011;54749;47.850;9.002;2023-03-23T03:03:55;9.90;;;4.23;;
67965;SDS011;54749;47.850;9.002;2023-03-23T03:11:53;7.88;;;3.00;;
67965;SDS011;54749;47.850;9.002;2023-03-23T03:14:29;8.18;;;3.45;;
67965;SDS011;54749;47.850;9.002;2023-03-23T03:17:20;7.77;;;3.07;;
67965;SDS011;54749;47.850;9.002;2023-03-23T03:19:54;7.15;;;3.00;;
67965;SDS011;54749;47.850;9.002;2023-03-23T03:22:26;7.35;;;3.20;;
67965;SDS011;54749;47.850;9.002;2023-03-23T03:24:56;9.65;;;4.05;;
67965;SDS011;54749;47.850;9.002;2023-03-23T03:27:45;9.20;;;3.47;;
67965;SDS011;54749;47.850;9.002;2023-03-23T03:30:21;7.60;;;3.00;;
67965;SDS011;54749;47.850;9.002;2023-03-23T03:32:55;7.75;;;3.58;;
67965;SDS011;54749;47.850;9.002;2023-03-23T03:35:22;7.68;;;3.38;;
67965;SDS011;54749;47.850;9.002;2023-03-23T03:37:51;7.45;;;3.47;;
67965;SDS011;54749;47.850;9.002;2023-03-23T03:40:20;5.95;;;2.80;;
67965;SDS011;54749;47.850;9.002;2023-03-23T03:42:49;7.53;;;3.67;;
67965;SDS011;54749;47.850;9.002;2023-03-23T03:45:18;13.40;;;3.67;;
67965;SDS011;54749;47.850;9.002;2023-03-23T03:47:46;7.50;;;3.45;;
67965;SDS011;54749;47.850;9.002;2023-03-23T03:50:15;7.45;;;3.13;;
67965;SDS011;54749;47.850;9.002;2023-03-23T03:52:43;7.03;;;3.20;;
67965;SDS011;54749;47.850;9.002;2023-03-23T03:55:10;7.37;;;2.90;;
67965;SDS011;54749;47.850;9.002;2023-03-23T03:57:41;5.97;;;2.90;;
67965;SDS011;54749;47.850;9.002;2023-03-23T04:00:26;6.30;;;3.17;;
67965;SDS011;54749;47.850;9.002;2023-03-23T04:02:55;6.45;;;2.95;;
67965;SDS011;54749;47.850;9.002;2023-03-23T04:05:39;6.80;;;2.90;;
67965;SDS011;54749;47.850;9.002;2023-03-23T04:08:07;6.80;;;3.50;;
67965;SDS011;54749;47.850;9.002;2023-03-23T04:10:35;7.25;;;3.60;;
67965;SDS011;54749;47.850;9.002;2023-03-23T04:13:02;7.18;;;3.03;;
67965;SDS011;54749;47.850;9.002;2023-03-23T04:15:50;7.00;;;3.10;;
67965;SDS011;54749;47.850;9.002;2023-03-23T04:18:37;6.82;;;3.13;;
67965;SDS011;54749;47.850;9.002;2023-03-23T04:21:05;7.10;;;3.60;;
67965;SDS011;54749;47.850;9.002;2023-03-23T04:23:35;7.20;;;3.50;;
67965;SDS011;54749;47.850;9.002;2023-03-23T04:26:03;7.28;;;3.72;;
67965;SDS011;54749;47.850;9.002;2023-03-23T04:28:37;7.55;;;3.63;;
67965;SDS011;54749;47.850;9.002;2023-03-23T04:31:23;8.38;;;3.80;;
67965;SDS011;54749;47.850;9.002;2023-03-23T04:34:00;9.30;;;4.93;;
67965;SDS011;54749;47.850;9.002;2023-03-23T04:36:34;10.65;;;5.57;;
67965;SDS011;54749;47.850;9.002;2023-03-23T04:39:25;10.68;;;4.45;;
67965;SDS011;54749;47.850;9.002;2023-03-23T04:41:58;9.82;;;4.72;;
67965;SDS011;54749;47.850;9.002;2023-03-23T04:45:00;10.73;;;4.63;;
67965;SDS011;54749;47.850;9.002;2023-03-23T04:47:35;8.93;;;4.00;;
67965;SDS011;54749;47.850;9.002;2023-03-23T04:50:17;7.80;;;3.58;;
67965;SDS011;54749;47.850;9.002;2023-03-23T04:52:45;7.43;;;3.35;;
67965;SDS011;54749;47.850;9.002;2023-03-23T04:55:15;9.30;;;3.40;;
67965;SDS011;54749;47.850;9.002;2023-03-23T04:57:47;7.68;;;3.63;;
67965;SDS011;54749;47.850;9.002;2023-03-23T05:00:33;7.97;;;3.37;;
67965;SDS011;54749;47.850;9.002;2023-03-23T05:03:02;8.43;;;3.00;;
67965;SDS011;54749;47.850;9.002;2023-03-23T05:05:31;7.53;;;3.45;;
67965;SDS011;54749;47.850;9.002;2023-03-23T05:08:05;8.07;;;3.60;;
67965;SDS011;54749;47.850;9.002;2023-03-23T05:10:36;8.15;;;3.80;;
67965;SDS011;54749;47.850;9.002;2023-03-23T05:13:08;8.87;;;3.80;;
67965;SDS011;54749;47.850;9.002;2023-03-23T05:15:35;8.45;;;3.90;;
67965;SDS011;54749;47.850;9.002;2023-03-23T05:18:07;7.05;;;3.30;;
67965;SDS011;54749;47.850;9.002;2023-03-23T05:20:36;9.02;;;4.20;;
67965;SDS011;54749;47.850;9.002;2023-03-23T05:23:09;7.50;;;3.67;;
67965;SDS011;54749;47.850;9.002;2023-03-23T05:25:38;10.60;;;3.90;;
67965;SDS011;54749;47.850;9.002;2023-03-23T05:28:14;9.95;;;3.83;;
67965;SDS011;54749;47.850;9.002;2023-03-23T05:30:51;7.22;;;3.42;;
67965;SDS011;54749;47.850;9.002;2023-03-23T05:33:20;6.72;;;3.10;;
67965;SDS011;54749;47.850;9.002;2023-03-23T05:36:10;8.00;;;3.20;;
67965;SDS011;54749;47.850;9.002;2023-03-23T05:39:10;8.75;;;3.50;;
67965;SDS011;54749;47.850;9.002;2023-03-23T05:41:56;6.43;;;3.33;;
67965;SDS011;54749;47.850;9.002;2023-03-23T05:44:26;6.85;;;3.10;;
67965;SDS011;54749;47.850;9.002;2023-03-23T05:47:00;7.85;;;3.63;;
67965;SDS011;54749;47.850;9.002;2023-03-23T05:49:27;6.47;;;3.33;;
67965;SDS011;54749;47.850;9.002;2023-03-23T05:51:54;6.93;;;3.47;;
67965;SDS011;54749;47.850;9.002;2023-03-23T05:54:21;7.27;;;3.13;;
67965;SDS011;54749;47.850;9.002;2023-03-23T05:56:49;6.93;;;3.30;;
67965;SDS011;54749;47.850;9.002;2023-03-23T05:59:24;7.30;;;3.60;;
67965;SDS011;54749;47.850;9.002;2023-03-23T06:01:55;7.18;;;3.50;;
67965;SDS011;54749;47.850;9.002;2023-03-23T06:04:25;7.68;;;4.13;;
67965;SDS011;54749;47.850;9.002;2023-03-23T06:07:07;8.70;;;3.60;;
67965;SDS011;54749;47.850;9.002;2023-03-23T06:09:34;12.43;;;5.47;;
67965;SDS011;54749;47.850;9.002;2023-03-23T06:12:19;14.60;;;6.10;;
67965;SDS011;54749;47.850;9.002;2023-03-23T06:15:06;10.70;;;5.78;;
67965;SDS011;54749;47.850;9.002;2023-03-23T06:18:13;9.75;;;4.95;;
67965;SDS011;54749;47.850;9.002;2023-03-23T06:20:59;9.90;;;4.73;;
67965;SDS011;54749;47.850;9.002;2023-03-23T06:23:46;15.68;;;5.80;;
67965;SDS011;54749;47.850;9.002;2023-03-23T06:26:16;11.13;;;4.90;;
67965;SDS011;54749;47.850;9.002;2023-03-23T06:28:50;9.82;;;4.70;;
67965;SDS011;54749;47.850;9.002;2023-03-23T06:31:17;8.43;;;4.68;;
67965;SDS011;54749;47.850;9.002;2023-03-23T06:33:48;9.23;;;4.10;;
67965;SDS011;54749;47.850;9.002;2023-03-23T06:36:24;10.32;;;4.25;;
67965;SDS011;54749;47.850;9.002;2023-03-23T06:39:06;11.15;;;5.10;;
67965;SDS011;54749;47.850;9.002;2023-03-23T06:41:52;9.57;;;5.07;;
67965;SDS011;54749;47.850;9.002;2023-03-23T06:44:19;8.68;;;4.72;;
67965;SDS011;54749;47.850;9.002;2023-03-23T06:46:46;8.73;;;4.47;;
67965;SDS011;54749;47.850;9.002;2023-03-23T06:49:19;13.38;;;5.38;;
67965;SDS011;54749;47.850;9.002;2023-03-23T06:51:52;10.30;;;5.47;;
67965;SDS011;54749;47.850;9.002;2023-03-23T06:54:19;12.57;;;5.60;;
67965;SDS011;54749;47.850;9.002;2023-03-23T06:56:46;9.45;;;4.82;;
67965;SDS011;54749;47.850;9.002;2023-03-23T06:59:14;10.63;;;5.00;;
67965;SDS011;54749;47.850;9.002;2023-03-23T07:01:41;10.27;;;4.97;;
67965;SDS011;54749;47.850;9.002;2023-03-23T07:04:08;8.90;;;4.20;;
67965;SDS011;54749;47.850;9.002;2023-03-23T07:06:44;10.93;;;4.53;;
67965;SDS011;54749;47.850;9.002;2023-03-23T07:09:12;9.57;;;4.63;;
67965;SDS011;54749;47.850;9.002;2023-03-23T07:11:40;10.93;;;4.60;;
67965;SDS011;54749;47.850;9.002;2023-03-23T07:14:18;10.80;;;4.53;;
67965;SDS011;54749;47.850;9.002;2023-03-23T07:16:46;10.45;;;5.05;;
67965;SDS011;54749;47.850;9.002;2023-03-23T07:19:13;9.65;;;5.30;;
67965;SDS011;54749;47.850;9.002;2023-03-23T07:21:41;10.10;;;4.80;;
67965;SDS011;54749;47.850;9.002;2023-03-23T07:24:12;11.03;;;5.47;;
67965;SDS011;54749;47.850;9.002;2023-03-23T07:26:55;15.48;;;5.38;;
67965;SDS011;54749;47.850;9.002;2023-03-23T07:29:23;12.48;;;5.80;;
67965;SDS011;54749;47.850;9.002;2023-03-23T07:32:00;14.07;;;5.55;;
67965;SDS011;54749;47.850;9.002;2023-03-23T07:34:28;14.85;;;5.35;;
67965;SDS011;54749;47.850;9.002;2023-03-23T07:37:07;11.33;;;4.67;;
67965;SDS011;54749;47.850;9.002;2023-03-23T07:39:36;8.13;;;4.43;;
67965;SDS011;54749;47.850;9.002;2023-03-23T07:42:04;8.80;;;4.60;;
67965;SDS011;54749;47.850;9.002;2023-03-23T07:44:41;10.80;;;3.80;;
67965;SDS011;54749;47.850;9.002;2023-03-23T07:47:11;7.85;;;4.10;;
67965;SDS011;54749;47.850;9.002;2023-03-23T07:49:39;8.40;;;4.30;;
67965;SDS011;54749;47.850;9.002;2023-03-23T07:52:39;9.57;;;5.03;;
67965;SDS011;54749;47.850;9.002;2023-03-23T07:55:09;9.25;;;4.82;;
67965;SDS011;54749;47.850;9.002;2023-03-23T07:57:52;11.15;;;4.13;;
67965;SDS011;54749;47.850;9.002;2023-03-23T08:00:21;8.63;;;4.20;;
67965;SDS011;54749;47.850;9.002;2023-03-23T08:02:53;8.60;;;4.17;;
67965;SDS011;54749;47.850;9.002;2023-03-23T08:05:28;8.43;;;4.20;;
67965;SDS011;54749;47.850;9.002;2023-03-23T08:08:21;9.70;;;4.40;;
67965;SDS011;54749;47.850;9.002;2023-03-23T08:11:13;8.18;;;4.68;;
67965;SDS011;54749;47.850;9.002;2023-03-23T08:13:54;9.18;;;4.15;;
67965;SDS011;54749;47.850;9.002;2023-03-23T08:16:54;9.40;;;4.70;;
67965;SDS011;54749;47.850;9.002;2023-03-23T08:19:51;10.70;;;4.60;;
67965;SDS011;54749;47.850;9.002;2023-03-23T08:22:36;10.00;;;5.03;;
67965;SDS011;54749;47.850;9.002;2023-03-23T08:25:40;9.30;;;4.20;;
67965;SDS011;54749;47.850;9.002;2023-03-23T08:28:29;7.90;;;3.90;;
67965;SDS011;54749;47.850;9.002;2023-03-23T08:31:18;8.43;;;4.00;;
67965;SDS011;54749;47.850;9.002;2023-03-23T08:33:57;8.15;;;4.05;;
67965;SDS011;54749;47.850;9.002;2023-03-23T08:36:52;8.52;;;4.20;;
67965;SDS011;54749;47.850;9.002;2023-03-23T08:39:38;10.73;;;4.22;;
67965;SDS011;54749;47.850;9.002;2023-03-23T08:42:28;8.52;;;4.30;;
67965;SDS011;54749;47.850;9.002;2023-03-23T08:45:10;9.20;;;4.10;;
67965;SDS011;54749;47.850;9.002;2023-03-23T08:47:42;11.30;;;3.95;;
67965;SDS011;54749;47.850;9.002;2023-03-23T08:50:17;9.95;;;4.30;;
67965;SDS011;54749;47.850;9.002;2023-03-23T08:53:13;13.30;;;5.00;;
67965;SDS011;54749;47.850;9.002;2023-03-23T08:55:55;8.52;;;4.30;;
67965;SDS011;54749;47.850;9.002;2023-03-23T08:58:36;13.40;;;4.70;;
67965;SDS011;54749;47.850;9.002;2023-03-23T09:01:27;12.82;;;4.85;;
67965;SDS011;54749;47.850;9.002;2023-03-23T09:04:14;9.43;;;4.00;;
67965;SDS011;54749;47.850;9.002;2023-03-23T09:06:57;9.73;;;3.92;;
67965;SDS011;54749;47.850;9.002;2023-03-23T09:09:24;8.77;;;4.22;;
67965;SDS011;54749;47.850;9.002;2023-03-23T09:11:52;10.33;;;3.97;;
67965;SDS011;54749;47.850;9.002;2023-03-23T09:14:20;9.23;;;3.80;;
67965;SDS011;54749;47.850;9.002;2023-03-23T09:16:47;12.23;;;4.07;;
67965;SDS011;54749;47.850;9.002;2023-03-23T09:19:14;7.38;;;3.45;;
67965;SDS011;54749;47.850;9.002;2023-03-23T09:21:42;9.02;;;3.47;;
67965;SDS011;54749;47.850;9.002;2023-03-23T09:24:09;9.30;;;3.50;;
67965;SDS011;54749;47.850;9.002;2023-03-23T09:26:37;6.85;;;2.85;;
67965;SDS011;54749;47.850;9.002;2023-03-23T09:29:04;9.00;;;3.60;;
67965;SDS011;54749;47.850;9.002;2023-03-23T09:31:31;7.68;;;3.08;;
67965;SDS011;54749;47.850;9.002;2023-03-23T09:33:58;6.60;;;2.80;;
67965;SDS011;54749;47.850;9.002;2023-03-23T09:36:26;6.07;;;2.90;;
67965;SDS011;54749;47.850;9.002;2023-03-23T09:38:55;10.10;;;3.47;;
67965;SDS011;54749;47.850;9.002;2023-03-23T09:46:52;8.27;;;2.88;;
67965;SDS011;54749;47.850;9.002;2023-03-23T09:49:41;5.87;;;2.70;;
67965;SDS011;54749;47.850;9.002;2023-03-23T09:52:16;7.60;;;2.80;;
67965;SDS011;54749;47.850;9.002;2023-03-23T09:54:48;6.88;;;2.40;;
67965;SDS011;54749;47.850;9.002;2023-03-23T09:59:58;7.22;;;2.85;;
67965;SDS011;54749;47.850;9.002;2023-03-23T10:02:39;8.37;;;2.70;;
67965;SDS011;54749;47.850;9.002;2023-03-23T10:05:35;7.90;;;2.70;;
67965;SDS011;54749;47.850;9.002;2023-03-23T10:08:11;8.18;;;2.60;;
67965;SDS011;54749;47.850;9.002;2023-03-23T10:13:26;7.88;;;3.08;;
67965;SDS011;54749;47.850;9.002;2023-03-23T10:15:54;8.47;;;2.80;;
67965;SDS011;54749;47.850;9.002;2023-03-23T10:18:27;8.23;;;2.40;;
67965;SDS011;54749;47.850;9.002;2023-03-23T10:21:03;5.97;;;2.58;;
67965;SDS011;54749;47.850;9.002;2023-03-23T10:26:24;8.85;;;2.65;;
67965;SDS011;54749;47.850;9.002;2023-03-23T10:28:57;8.80;;;2.60;;
67965;SDS011;54749;47.850;9.002;2023-03-23T10:31:32;8.60;;;2.55;;
67965;SDS011;54749;47.850;9.002;2023-03-23T10:37:02;9.70;;;2.30;;
67965;SDS011;54749;47.850;9.002;2023-03-23T10:39:42;7.07;;;2.15;;
67965;SDS011;54749;47.850;9.002;2023-03-23T10:42:25;7.07;;;2.63;;
67965;SDS011;54749;47.850;9.002;2023-03-23T10:45:08;8.27;;;2.47;;
67965;SDS011;54749;47.850;9.002;2023-03-23T10:47:38;8.15;;;2.90;;
67965;SDS011;54749;47.850;9.002;2023-03-23T10:50:10;6.82;;;2.40;;
67965;SDS011;54749;47.850;9.002;2023-03-23T10:52:43;5.28;;;2.40;;
67965;SDS011;54749;47.850;9.002;2023-03-23T10:55:15;6.87;;;2.37;;
67965;SDS011;54749;47.850;9.002;2023-03-23T10:57:45;6.05;;;2.50;;
67965;SDS011;54749;47.850;9.002;2023-03-23T11:00:28;6.55;;;3.00;;
67965;SDS011;54749;47.850;9.002;2023-03-23T11:05:41;6.55;;;3.05;;
67965;SDS011;54749;47.850;9.002;2023-03-23T11:08:14;7.27;;;2.23;;
67965;SDS011;54749;47.850;9.002;2023-03-23T11:10:50;7.60;;;2.60;;
67965;SDS011;54749;47.850;9.002;2023-03-23T11:13:23;5.90;;;2.40;;
67965;SDS011;54749;47.850;9.002;2023-03-23T11:15:56;5.65;;;2.47;;
67965;SDS011;54749;47.850;9.002;2023-03-23T11:18:42;7.18;;;3.17;;
67965;SDS011;54749;47.850;9.002;2023-03-23T11:21:12;5.33;;;2.20;;
67965;SDS011;54749;47.850;9.002;2023-03-23T11:23:40;7.03;;;2.40;;
67965;SDS011;54749;47.850;9.002;2023-03-23T11:26:12;9.15;;;3.30;;
67965;SDS011;54749;47.850;9.002;2023-03-23T11:31:52;8.25;;;2.63;;
67965;SDS011;54749;47.850;9.002;2023-03-23T11:34:31;7.77;;;2.37;;
67965;SDS011;54749;47.850;9.002;2023-03-23T11:37:11;7.32;;;2.42;;
67965;SDS011;54749;47.850;9.002;2023-03-23T11:42:23;6.97;;;2.10;;
67965;SDS011;54749;47.850;9.002;2023-03-23T11:44:55;8.38;;;2.50;;
67965;SDS011;54749;47.850;9.002;2023-03-23T11:47:41;5.60;;;2.17;;
67965;SDS011;54749;47.850;9.002;2023-03-23T11:50:32;8.88;;;2.47;;
67965;SDS011;54749;47.850;9.002;2023-03-23T11:56:15;6.38;;;2.40;;
67965;SDS011;54749;47.850;9.002;2023-03-23T11:58:50;6.18;;;2.90;;
67965;SDS011;54749;47.850;9.002;2023-03-23T12:03:59;10.23;;;3.08;;
67965;SDS011;54749;47.850;9.002;2023-03-23T12:07:01;6.88;;;3.05;;
67965;SDS011;54749;47.850;9.002;2023-03-23T12:09:31;6.03;;;2.67;;
67965;SDS011;54749;47.850;9.002;2023-03-23T12:14:51;9.93;;;3.37;;
67965;SDS011;54749;47.850;9.002;2023-03-23T12:20:24;9.57;;;2.92;;
67965;SDS011;54749;47.850;9.002;2023-03-23T12:23:11;10.32;;;3.35;;
67965;SDS011;54749;47.850;9.002;2023-03-23T12:31:23;9.85;;;4.28;;
67965;SDS011;54749;47.850;9.002;2023-03-23T12:36:47;5.85;;;2.70;;
67965;SDS011;54749;47.850;9.002;2023-03-23T12:42:35;9.93;;;2.90;;
67965;SDS011;54749;47.850;9.002;2023-03-23T12:47:42;6.68;;;2.60;;
67965;SDS011;54749;47.850;9.002;2023-03-23T12:50:31;7.80;;;2.38;;
67965;SDS011;54749;47.850;9.002;2023-03-23T12:53:09;8.65;;;2.42;;
67965;SDS011;54749;47.850;9.002;2023-03-23T12:55:50;6.00;;;2.23;;
67965;SDS011;54749;47.850;9.002;2023-03-23T12:58:25;13.27;;;2.95;;
67965;SDS011;54749;47.850;9.002;2023-03-23T13:00:56;9.70;;;2.35;;
67965;SDS011;54749;47.850;9.002;2023-03-23T13:08:46;10.93;;;2.33;;
67965;SDS011;54749;47.850;9.002;2023-03-23T13:14:45;4.75;;;1.70;;
67965;SDS011;54749;47.850;9.002;2023-03-23T13:22:20;5.07;;;1.80;;
67965;SDS011;54749;47.850;9.002;2023-03-23T13:24:55;5.07;;;1.92;;
67965;SDS011;54749;47.850;9.002;2023-03-23T13:27:26;7.57;;;1.80;;
67965;SDS011;54749;47.850;9.002;2023-03-23T13:29:57;6.72;;;2.40;;
67965;SDS011;54749;47.850;9.002;2023-03-23T13:32:35;5.97;;;1.90;;
67965;SDS011;54749;47.850;9.002;2023-03-23T13:35:13;6.33;;;2.20;;
67965;SDS011;54749;47.850;9.002;2023-03-23T13:37:47;4.78;;;2.08;;
67965;SDS011;54749;47.850;9.002;2023-03-23T13:40:27;5.15;;;2.00;;
67965;SDS011;54749;47.850;9.002;2023-03-23T13:42:56;9.18;;;2.10;;
67965;SDS011;54749;47.850;9.002;2023-03-23T13:53:42;5.95;;;2.00;;
67965;SDS011;54749;47.850;9.002;2023-03-23T13:56:16;4.20;;;1.85;;
67965;SDS011;54749;47.850;9.002;2023-03-23T13:58:48;5.78;;;2.20;;
67965;SDS011;54749;47.850;9.002;2023-03-23T14:01:19;4.57;;;2.10;;
67965;SDS011;54749;47.850;9.002;2023-03-23T14:03:59;4.65;;;2.05;;
67965;SDS011;54749;47.850;9.002;2023-03-23T14:06:32;5.05;;;2.00;;
67965;SDS011;54749;47.850;9.002;2023-03-23T14:09:51;5.93;;;2.30;;
67965;SDS011;54749;47.850;9.002;2023-03-23T14:12:01;6.13;;;2.30;;
67965;SDS011;54749;47.850;9.002;2023-03-23T14:14:39;5.33;;;2.20;;
67965;SDS011;54749;47.850;9.002;2023-03-23T14:17:21;5.53;;;2.08;;
67965;SDS011;54749;47.850;9.002;2023-03-23T14:19:56;5.18;;;2.20;;
67965;SDS011;54749;47.850;9.002;2023-03-23T14:22:36;5.38;;;2.20;;
67965;SDS011;54749;47.850;9.002;2023-03-23T14:25:14;4.80;;;2.30;;
67965;SDS011;54749;47.850;9.002;2023-03-23T14:27:44;5.27;;;2.50;;
67965;SDS011;54749;47.850;9.002;2023-03-23T14:30:22;4.78;;;2.03;;
67965;SDS011;54749;47.850;9.002;2023-03-23T14:32:52;6.00;;;2.40;;
67965;SDS011;54749;47.850;9.002;2023-03-23T14:35:25;5.95;;;2.30;;
67965;SDS011;54749;47.850;9.002;2023-03-23T14:37:57;6.85;;;2.78;;
67965;SDS011;54749;47.850;9.002;2023-03-23T14:40:28;9.90;;;2.90;;
67965;SDS011;54749;47.850;9.002;2023-03-23T14:42:56;7.10;;;2.72;;
67965;SDS011;54749;47.850;9.002;2023-03-23T14:45:24;5.97;;;2.60;;
67965;SDS011;54749;47.850;9.002;2023-03-23T14:47:57;5.32;;;2.50;;
67965;SDS011;54749;47.850;9.002;2023-03-23T14:52:56;5.63;;;2.47;;
67965;SDS011;54749;47.850;9.002;2023-03-23T14:55:25;7.07;;;2.70;;
67965;SDS011;54749;47.850;9.002;2023-03-23T14:57:55;5.93;;;2.58;;
67965;SDS011;54749;47.850;9.002;2023-03-23T15:00:23;8.13;;;2.80;;
67965;SDS011;54749;47.850;9.002;2023-03-23T15:02:56;7.03;;;2.67;;
67965;SDS011;54749;47.850;9.002;2023-03-23T15:05:36;5.93;;;2.40;;
67965;SDS011;54749;47.850;9.002;2023-03-23T15:08:12;6.75;;;2.85;;
67965;SDS011;54749;47.850;9.002;2023-03-23T15:10:42;6.47;;;2.70;;
67965;SDS011;54749;47.850;9.002;2023-03-23T15:13:19;5.65;;;2.50;;
67965;SDS011;54749;47.850;9.002;2023-03-23T15:15:46;7.38;;;2.20;;
67965;SDS011;54749;47.850;9.002;2023-03-23T15:18:26;6.93;;;3.03;;
67965;SDS011;54749;47.850;9.002;2023-03-23T15:20:57;7.10;;;2.80;;
67965;SDS011;54749;47.850;9.002;2023-03-23T15:23:28;8.70;;;2.67;;
67965;SDS011;54749;47.850;9.002;2023-03-23T15:26:05;6.88;;;2.55;;
67965;SDS011;54749;47.850;9.002;2023-03-23T15:28:39;7.13;;;3.03;;
67965;SDS011;54749;47.850;9.002;2023-03-23T15:31:06;9.57;;;3.40;;
67965;SDS011;54749;47.850;9.002;2023-03-23T15:33:35;10.55;;;3.70;;
67965;SDS011;54749;47.850;9.002;2023-03-23T15:36:08;7.35;;;3.08;;
67965;SDS011;54749;47.850;9.002;2023-03-23T15:38:45;5.85;;;2.72;;
67965;SDS011;54749;47.850;9.002;2023-03-23T15:41:23;5.25;;;2.10;;
67965;SDS011;54749;47.850;9.002;2023-03-23T15:43:53;8.90;;;2.80;;
67965;SDS011;54749;47.850;9.002;2023-03-23T15:46:26;7.38;;;2.75;;
67965;SDS011;54749;47.850;9.002;2023-03-23T15:51:25;4.47;;;2.08;;
67965;SDS011;54749;47.850;9.002;2023-03-23T15:53:54;7.65;;;2.95;;
67965;SDS011;54749;47.850;9.002;2023-03-23T15:56:25;5.93;;;2.30;;
67965;SDS011;54749;47.850;9.002;2023-03-23T15:58:53;4.80;;;2.08;;
67965;SDS011;54749;47.850;9.002;2023-03-23T16:01:20;5.25;;;2.10;;
67965;SDS011;54749;47.850;9.002;2023-03-23T16:03:57;5.32;;;2.10;;
67965;SDS011;54749;47.850;9.002;2023-03-23T16:06:29;6.15;;;2.20;;
67965;SDS011;54749;47.850;9.002;2023-03-23T16:08:57;6.33;;;2.30;;
67965;SDS011;54749;47.850;9.002;2023-03-23T16:11:26;6.13;;;2.20;;
67965;SDS011;54749;47.850;9.002;2023-03-23T16:13:56;5.82;;;2.15;;
67965;SDS011;54749;47.850;9.002;2023-03-23T16:16:27;4.97;;;2.15;;
67965;SDS011;54749;47.850;9.002;2023-03-23T16:18:58;5.93;;;1.90;;
67965;SDS011;54749;47.850;9.002;2023-03-23T16:21:25;5.33;;;2.30;;
67965;SDS011;54749;47.850;9.002;2023-03-23T16:23:52;5.78;;;2.35;;
67965;SDS011;54749;47.850;9.002;2023-03-23T16:26:19;5.05;;;2.22;;
67965;SDS011;54749;47.850;9.002;2023-03-23T16:28:47;5.72;;;2.05;;
67965;SDS011;54749;47.850;9.002;2023-03-23T16:31:14;4.53;;;2.10;;
67965;SDS011;54749;47.850;9.002;2023-03-23T16:33:42;6.30;;;2.40;;
67965;SDS011;54749;47.850;9.002;2023-03-23T16:36:10;7.05;;;2.40;;
67965;SDS011;54749;47.850;9.002;2023-03-23T16:38:39;5.95;;;2.30;;
67965;SDS011;54749;47.850;9.002;2023-03-23T16:41:17;5.72;;;2.25;;
67965;SDS011;54749;47.850;9.002;2023-03-23T16:43:45;5.88;;;2.53;;
67965;SDS011;54749;47.850;9.002;2023-03-23T16:46:12;5.87;;;2.60;;
67965;SDS011;54749;47.850;9.002;2023-03-23T16:48:40;6.13;;;2.70;;
67965;SDS011;54749;47.850;9.002;2023-03-23T16:51:07;6.03;;;2.53;;
67965;SDS011;54749;47.850;9.002;2023-03-23T16:53:34;6.22;;;2.40;;
67965;SDS011;54749;47.850;9.002;2023-03-23T16:56:03;5.28;;;2.38;;
67965;SDS011;54749;47.850;9.002;2023-03-23T16:58:30;5.77;;;2.40;;
67965;SDS011;54749;47.850;9.002;2023-03-23T17:00:57;6.35;;;2.40;;
67965;SDS011;54749;47.850;9.002;2023-03-23T17:03:27;5.88;;;2.70;;
67965;SDS011;54749;47.850;9.002;2023-03-23T17:05:54;8.35;;;4.13;;